Terminal Aerodrome Forecast
Issued by NWS

Home | Current Version | Previous Version | Text Only | Print | Product List | Glossary On
Versions: 1 2 3 4 5 6 7 8 9 10 11 12 13 14 15 16 17 18 19 20 21
000
FTUS46 KPDT 010500
TAFYKM
TAF
KYKM 010521Z 0106/0206 25003KT P6SM OVC012
     FM011000 28007KT P6SM OVC008
     FM011600 25008KT P6SM VCSH OVC015
     FM012300 30008KT P6SM BKN020 OVC050=

USA.gov is the U.S. government's official web portal to all federal, state and local government web resources and services.